Time;durP1;ratioP1;P1;durP2;ratioP2;P2;SDS_P1;SDS_P2;PMS_P1;PMS_P2;Temp;Humidity;BMP_temperature;BMP_pressure;BME280_temperature;BME280_humidity;BME280_pressure;Samples;Min_cycle;Max_cycle;Signal;HPM_P1;HPM_P2
2023/08/26 00:00:44;;;;;;;467.30;442.80;;;;;;;;;;4996500;28;20254;-82
2023/08/26 00:03:11;;;;;;;407.05;385.45;;;;;;;;;;5004546;28;20223;-82
2023/08/26 00:05:38;;;;;;;363.13;341.30;;;;;;;;;;4997406;28;20240;-82
2023/08/26 00:08:04;;;;;;;295.90;276.40;;;;;;;;;;4999891;28;20235;-83
2023/08/26 00:10:31;;;;;;;264.73;245.02;;;;;;;;;;4999230;28;20292;-83
2023/08/26 00:12:58;;;;;;;298.17;281.85;;;;;;;;;;5003493;28;20605;-83
2023/08/26 00:15:24;;;;;;;313.13;294.30;;;;;;;;;;4994576;28;20223;-83
2023/08/26 00:17:51;;;;;;;341.17;322.90;;;;;;;;;;5000188;28;20702;-82
2023/08/26 00:20:21;;;;;;;251.95;235.52;;;;;;;;;;5000841;28;20238;-82
2023/08/26 00:22:48;;;;;;;325.38;307.20;;;;;;;;;;4992239;28;20291;-82
2023/08/26 00:25:15;;;;;;;399.50;378.13;;;;;;;;;;5003801;28;20294;-82
2023/08/26 00:27:41;;;;;;;148.70;135.10;;;;;;;;;;4996899;28;20224;-82
2023/08/26 00:30:08;;;;;;;307.25;290.33;;;;;;;;;;5005166;28;20234;-83
2023/08/26 00:32:35;;;;;;;277.20;257.90;;;;;;;;;;4992276;28;20310;-82
2023/08/26 00:35:01;;;;;;;220.07;207.05;;;;;;;;;;5003219;28;20227;-82
2023/08/26 00:37:31;;;;;;;234.52;217.65;;;;;;;;;;4998292;28;20251;-82
2023/08/26 00:39:57;;;;;;;335.13;316.98;;;;;;;;;;5000370;28;20320;-82
2023/08/26 00:42:24;;;;;;;312.25;294.25;;;;;;;;;;4990042;28;20279;-83
2023/08/26 00:44:50;;;;;;;240.90;226.63;;;;;;;;;;5008738;28;20230;-82
2023/08/26 00:47:17;;;;;;;275.63;258.55;;;;;;;;;;4994013;28;20243;-82
2023/08/26 00:49:44;;;;;;;306.65;290.85;;;;;;;;;;4996710;28;20239;-82
2023/08/26 00:52:11;;;;;;;222.30;209.35;;;;;;;;;;5003887;28;20242;-82
2023/08/26 00:54:37;;;;;;;219.10;202.73;;;;;;;;;;4989602;28;20286;-83
2023/08/26 00:57:04;;;;;;;206.45;194.18;;;;;;;;;;5001722;28;20246;-82
2023/08/26 00:59:31;;;;;;;190.15;173.98;;;;;;;;;;4995236;28;20270;-82
2023/08/26 01:01:59;;;;;;;227.98;214.48;;;;;;;;;;4997114;28;20310;-83
2023/08/26 01:04:25;;;;;;;229.98;214.15;;;;;;;;;;4994508;28;20255;-82
2023/08/26 01:06:52;;;;;;;211.65;198.70;;;;;;;;;;4992596;28;20276;-82
2023/08/26 01:09:19;;;;;;;231.13;217.15;;;;;;;;;;4997889;28;20239;-82
2023/08/26 01:11:49;;;;;;;269.60;254.20;;;;;;;;;;4999919;28;20605;-82
2023/08/26 01:14:24;;;;;;;238.05;220.93;;;;;;;;;;4978337;28;20650;-81
2023/08/26 01:16:51;;;;;;;136.38;126.00;;;;;;;;;;4983023;28;20235;-82
2023/08/26 01:19:31;;;;;;;148.07;137.98;;;;;;;;;;5007726;28;20234;-82
2023/08/26 01:22:00;;;;;;;139.60;129.77;;;;;;;;;;5001480;28;20716;-82
2023/08/26 01:24:27;;;;;;;215.05;200.55;;;;;;;;;;4996101;28;20236;-81
2023/08/26 01:26:53;;;;;;;178.10;166.88;;;;;;;;;;4998951;28;20227;-81
2023/08/26 01:29:20;;;;;;;152.60;142.32;;;;;;;;;;5003854;28;20247;-81
2023/08/26 01:31:50;;;;;;;166.82;155.32;;;;;;;;;;4996315;28;20235;-82
2023/08/26 01:34:20;;;;;;;254.73;239.52;;;;;;;;;;4999030;28;20235;-82
2023/08/26 01:36:47;;;;;;;298.63;281.30;;;;;;;;;;5000026;28;20234;-81
2023/08/26 01:39:15;;;;;;;363.02;344.08;;;;;;;;;;5009298;28;20235;-81
2023/08/26 01:42:00;;;;;;;302.88;281.35;;;;;;;;;;4992926;28;20269;-81
2023/08/26 01:44:28;;;;;;;305.23;285.17;;;;;;;;;;4994839;28;20626;-82
2023/08/26 01:46:55;;;;;;;287.75;271.15;;;;;;;;;;5005033;28;20232;-82
2023/08/26 01:49:22;;;;;;;206.38;192.85;;;;;;;;;;5005064;28;20243;-82
2023/08/26 01:51:49;;;;;;;328.33;309.77;;;;;;;;;;5000433;28;20305;-81
2023/08/26 01:54:16;;;;;;;367.20;346.98;;;;;;;;;;4997782;28;20236;-82
2023/08/26 01:56:42;;;;;;;392.40;367.55;;;;;;;;;;4982451;28;20250;-81
2023/08/26 01:59:09;;;;;;;360.35;337.33;;;;;;;;;;4983462;28;20633;-81
2023/08/26 02:01:36;;;;;;;441.13;414.55;;;;;;;;;;4979528;28;20223;-81
2023/08/26 02:04:02;;;;;;;453.30;429.60;;;;;;;;;;5003318;28;20227;-81
2023/08/26 02:06:29;;;;;;;384.05;360.60;;;;;;;;;;4996572;28;20246;-81
2023/08/26 02:08:55;;;;;;;335.98;314.70;;;;;;;;;;4997750;28;20262;-80
2023/08/26 02:11:22;;;;;;;360.95;340.58;;;;;;;;;;4997974;28;20231;-81
2023/08/26 02:13:48;;;;;;;376.33;354.23;;;;;;;;;;4998213;28;20254;-80
2023/08/26 02:16:15;;;;;;;422.95;399.25;;;;;;;;;;5005617;28;20231;-81
2023/08/26 02:18:42;;;;;;;327.33;305.23;;;;;;;;;;4992649;28;20282;-81
2023/08/26 02:21:08;;;;;;;469.88;443.98;;;;;;;;;;4997034;28;20221;-80
2023/08/26 02:23:35;;;;;;;476.98;448.52;;;;;;;;;;4998542;28;20239;-81
2023/08/26 02:26:02;;;;;;;461.15;436.05;;;;;;;;;;5004133;28;20231;-81
2023/08/26 02:28:28;;;;;;;430.65;403.73;;;;;;;;;;4976864;28;20239;-80
2023/08/26 02:30:55;;;;;;;624.92;591.78;;;;;;;;;;5000928;28;20331;-81
2023/08/26 02:33:24;;;;;;;614.75;580.65;;;;;;;;;;4985057;28;20299;-81
2023/08/26 02:35:50;;;;;;;587.30;553.30;;;;;;;;;;4995519;28;20347;-81
2023/08/26 02:38:17;;;;;;;496.30;467.88;;;;;;;;;;5004828;28;20292;-80
2023/08/26 02:40:53;;;;;;;702.63;664.72;;;;;;;;;;5000301;28;20316;-81
2023/08/26 02:43:20;;;;;;;779.95;734.85;;;;;;;;;;5000587;28;20281;-81
2023/08/26 02:45:53;;;;;;;764.22;721.38;;;;;;;;;;5005216;28;20239;-80
2023/08/26 02:48:20;;;;;;;722.28;680.53;;;;;;;;;;4997163;28;20235;-81
2023/08/26 02:50:47;;;;;;;551.03;520.03;;;;;;;;;;4993372;28;20235;-81
2023/08/26 02:53:14;;;;;;;583.03;551.70;;;;;;;;;;5005685;28;20231;-81
2023/08/26 02:55:40;;;;;;;534.80;502.50;;;;;;;;;;4998894;28;20292;-80
2023/08/26 02:58:07;;;;;;;564.63;534.38;;;;;;;;;;4999076;28;20299;-80
2023/08/26 03:00:33;;;;;;;535.00;499.15;;;;;;;;;;4994069;28;20239;-79
2023/08/26 03:03:00;;;;;;;552.47;521.90;;;;;;;;;;4998422;28;20242;-80
2023/08/26 03:05:27;;;;;;;498.00;470.10;;;;;;;;;;4994654;28;20228;-80
2023/08/26 03:07:53;;;;;;;444.73;420.38;;;;;;;;;;5011060;28;20227;-80
2023/08/26 03:10:20;;;;;;;448.90;424.20;;;;;;;;;;5002544;28;20267;-80
2023/08/26 03:12:47;;;;;;;416.77;394.08;;;;;;;;;;4979031;28;20655;-81
2023/08/26 03:15:13;;;;;;;298.77;280.73;;;;;;;;;;5000175;28;20282;-81
2023/08/26 03:17:40;;;;;;;338.23;316.67;;;;;;;;;;4993965;28;20224;-81
2023/08/26 03:20:07;;;;;;;307.00;289.25;;;;;;;;;;4995974;28;20231;-79
2023/08/26 03:22:33;;;;;;;303.50;284.02;;;;;;;;;;5000836;28;20266;-80
2023/08/26 03:25:00;;;;;;;367.52;347.00;;;;;;;;;;5002023;28;20226;-80
2023/08/26 03:27:26;;;;;;;297.75;278.65;;;;;;;;;;4993690;28;20326;-80
2023/08/26 03:29:53;;;;;;;384.77;363.30;;;;;;;;;;5004799;28;20239;-81
2023/08/26 03:32:19;;;;;;;235.50;221.85;;;;;;;;;;4992933;28;20240;-80
2023/08/26 03:34:46;;;;;;;320.52;303.33;;;;;;;;;;4998922;28;20230;-81
2023/08/26 03:37:13;;;;;;;222.23;209.15;;;;;;;;;;5003509;28;20224;-80
2023/08/26 03:39:39;;;;;;;280.90;262.25;;;;;;;;;;5006897;28;20235;-80
2023/08/26 03:42:06;;;;;;;287.13;270.13;;;;;;;;;;4996892;28;20235;-80
2023/08/26 03:44:32;;;;;;;312.30;293.10;;;;;;;;;;5001225;28;20235;-81
2023/08/26 03:46:59;;;;;;;290.20;274.15;;;;;;;;;;5005793;28;20239;-79
2023/08/26 03:49:25;;;;;;;197.38;184.77;;;;;;;;;;5002108;28;20231;-79
2023/08/26 03:51:52;;;;;;;279.42;264.58;;;;;;;;;;4995191;28;20294;-80
2023/08/26 03:54:19;;;;;;;234.07;219.90;;;;;;;;;;5001647;28;20365;-80
2023/08/26 03:56:45;;;;;;;204.15;191.65;;;;;;;;;;5001300;28;20235;-81
2023/08/26 03:59:12;;;;;;;181.10;170.27;;;;;;;;;;4997784;28;20239;-80
2023/08/26 04:01:38;;;;;;;165.55;151.55;;;;;;;;;;4996757;28;20243;-79
2023/08/26 04:04:05;;;;;;;210.27;197.18;;;;;;;;;;5006298;28;20227;-80
2023/08/26 04:06:33;;;;;;;189.90;175.43;;;;;;;;;;4995355;28;20223;-81
2023/08/26 04:09:02;;;;;;;303.77;287.45;;;;;;;;;;4996647;28;20323;-82
2023/08/26 04:11:29;;;;;;;312.67;292.42;;;;;;;;;;4994058;28;20228;-81
2023/08/26 04:13:56;;;;;;;247.80;233.75;;;;;;;;;;4997306;28;20818;-81
2023/08/26 04:16:22;;;;;;;224.32;210.68;;;;;;;;;;4999507;28;20227;-80
2023/08/26 04:18:49;;;;;;;254.38;240.45;;;;;;;;;;5001103;28;20239;-81
2023/08/26 04:21:15;;;;;;;111.70;100.47;;;;;;;;;;4998518;28;20270;-80
2023/08/26 04:23:42;;;;;;;222.57;207.88;;;;;;;;;;4994172;28;20302;-80
2023/08/26 04:26:08;;;;;;;310.35;293.23;;;;;;;;;;4998334;28;20243;-80
2023/08/26 04:28:35;;;;;;;210.48;195.23;;;;;;;;;;4998301;28;20234;-82
2023/08/26 04:31:01;;;;;;;180.73;169.88;;;;;;;;;;5000580;28;20245;-81
2023/08/26 04:33:29;;;;;;;84.60;56.03;;;;;;;;;;5002268;28;20256;-81
2023/08/26 04:35:56;;;;;;;217.25;205.07;;;;;;;;;;4995964;28;20324;-81
2023/08/26 04:38:22;;;;;;;184.40;171.90;;;;;;;;;;4996079;28;20250;-79
2023/08/26 04:40:49;;;;;;;238.60;223.88;;;;;;;;;;5000045;28;20243;-79
2023/08/26 04:43:15;;;;;;;80.60;64.60;;;;;;;;;;4998964;28;20239;-80
2023/08/26 04:45:42;;;;;;;164.95;148.82;;;;;;;;;;4989005;28;20254;-79
2023/08/26 04:48:09;;;;;;;234.43;219.60;;;;;;;;;;4999367;28;20239;-80
2023/08/26 04:50:36;;;;;;;130.63;119.93;;;;;;;;;;4990908;28;20227;-81
2023/08/26 04:53:03;;;;;;;182.82;171.90;;;;;;;;;;5001282;28;20243;-80
2023/08/26 04:55:31;;;;;;;211.50;196.30;;;;;;;;;;4966420;28;20236;-80
2023/08/26 04:57:59;;;;;;;178.02;166.35;;;;;;;;;;4994307;28;20234;-80
2023/08/26 05:00:29;;;;;;;166.70;151.85;;;;;;;;;;4990020;28;20243;-79
2023/08/26 05:02:55;;;;;;;33.10;6.32;;;;;;;;;;5001161;28;20223;-80
2023/08/26 05:05:22;;;;;;;57.30;45.00;;;;;;;;;;5002324;28;20287;-80
2023/08/26 05:07:49;;;;;;;282.30;267.02;;;;;;;;;;4993241;28;20224;-80
2023/08/26 05:10:15;;;;;;;246.10;231.48;;;;;;;;;;4997763;28;20250;-80
2023/08/26 05:12:42;;;;;;;131.75;115.80;;;;;;;;;;4997474;28;20227;-80
2023/08/26 05:15:08;;;;;;;313.48;296.85;;;;;;;;;;4997568;28;20239;-81
2023/08/26 05:17:35;;;;;;;104.20;45.67;;;;;;;;;;4994265;28;20626;-80
2023/08/26 05:20:02;;;;;;;69.97;64.10;;;;;;;;;;5000283;28;20260;-80
2023/08/26 05:22:29;;;;;;;231.45;211.27;;;;;;;;;;4991715;28;20270;-79
2023/08/26 05:24:55;;;;;;;143.40;133.88;;;;;;;;;;4999820;28;20228;-79
2023/08/26 05:27:22;;;;;;;226.30;211.57;;;;;;;;;;4998372;28;20251;-81
2023/08/26 05:29:49;;;;;;;216.00;203.15;;;;;;;;;;4968219;28;20243;-78
2023/08/26 05:32:15;;;;;;;148.98;138.80;;;;;;;;;;4994194;28;20236;-78
2023/08/26 05:34:42;;;;;;;90.60;79.75;;;;;;;;;;4988130;28;20236;-78
2023/08/26 05:37:09;;;;;;;98.68;91.20;;;;;;;;;;4997660;28;20239;-78
2023/08/26 05:39:35;;;;;;;82.10;57.80;;;;;;;;;;4991364;28;20224;-78
2023/08/26 05:42:02;;;;;;;149.90;140.75;;;;;;;;;;5000065;28;20231;-78
2023/08/26 05:44:29;;;;;;;181.32;167.32;;;;;;;;;;4998063;28;20243;-78
2023/08/26 05:46:55;;;;;;;200.63;188.13;;;;;;;;;;5000618;28;20238;-82
2023/08/26 05:49:22;;;;;;;242.75;228.38;;;;;;;;;;5003634;28;20242;-80
2023/08/26 05:51:48;;;;;;;183.50;171.27;;;;;;;;;;4996925;28;20244;-78
2023/08/26 05:54:15;;;;;;;164.70;153.43;;;;;;;;;;4997340;28;20223;-79
2023/08/26 05:56:41;;;;;;;85.10;39.67;;;;;;;;;;4996999;28;20227;-78
2023/08/26 05:59:08;;;;;;;199.13;187.45;;;;;;;;;;4995395;28;20224;-78
2023/08/26 06:01:35;;;;;;;164.32;150.40;;;;;;;;;;4982824;28;20246;-78
2023/08/26 06:04:01;;;;;;;164.50;153.80;;;;;;;;;;4997221;28;20227;-77
2023/08/26 06:06:29;;;;;;;63.72;47.00;;;;;;;;;;4981233;28;20710;-78
2023/08/26 06:08:56;;;;;;;34.95;15.70;;;;;;;;;;5002841;28;20236;-78
2023/08/26 06:11:23;;;;;;;125.07;116.10;;;;;;;;;;5002351;28;20236;-78
2023/08/26 06:13:50;;;;;;;195.30;183.77;;;;;;;;;;4991759;28;20229;-78
2023/08/26 06:16:19;;;;;;;237.60;223.93;;;;;;;;;;4998960;28;20227;-77
2023/08/26 06:18:48;;;;;;;58.10;52.55;;;;;;;;;;4986394;28;20232;-78
2023/08/26 06:21:15;;;;;;;203.82;191.60;;;;;;;;;;4990425;28;20228;-78
2023/08/26 06:23:42;;;;;;;86.45;77.18;;;;;;;;;;4998586;28;20228;-78
2023/08/26 06:26:08;;;;;;;79.63;73.25;;;;;;;;;;5000013;28;20236;-77
2023/08/26 06:28:35;;;;;;;81.65;61.80;;;;;;;;;;4992046;28;20227;-79
2023/08/26 06:31:02;;;;;;;50.38;43.65;;;;;;;;;;4999052;28;20284;-78
2023/08/26 06:33:29;;;;;;;104.45;94.63;;;;;;;;;;4994660;28;20257;-78
2023/08/26 06:35:55;;;;;;;29.35;19.80;;;;;;;;;;5000401;28;20239;-78
2023/08/26 06:38:22;;;;;;;49.10;9.48;;;;;;;;;;5000717;28;20239;-78
2023/08/26 06:40:52;;;;;;;34.80;18.15;;;;;;;;;;4992163;28;20243;-79
2023/08/26 06:43:19;;;;;;;43.65;28.13;;;;;;;;;;4999920;28;20301;-79
2023/08/26 06:45:45;;;;;;;44.30;22.85;;;;;;;;;;4969267;28;20262;-80
2023/08/26 06:48:12;;;;;;;66.88;59.35;;;;;;;;;;4978989;28;20235;-78
2023/08/26 06:50:40;;;;;;;68.20;32.97;;;;;;;;;;4996667;28;20709;-78
2023/08/26 06:53:07;;;;;;;70.65;63.25;;;;;;;;;;4997711;28;20225;-79
2023/08/26 06:55:33;;;;;;;133.95;123.18;;;;;;;;;;4997906;28;20228;-78
2023/08/26 06:58:00;;;;;;;188.00;174.23;;;;;;;;;;4999009;28;20273;-80
2023/08/26 07:00:26;;;;;;;153.98;144.18;;;;;;;;;;4996040;28;20238;-78
2023/08/26 07:02:53;;;;;;;80.38;74.15;;;;;;;;;;4999817;28;20675;-78
2023/08/26 07:05:19;;;;;;;126.80;117.60;;;;;;;;;;4987075;28;20761;-79
2023/08/26 07:07:46;;;;;;;152.25;142.95;;;;;;;;;;4992101;28;20313;-79
2023/08/26 07:10:13;;;;;;;156.88;146.45;;;;;;;;;;4984069;28;20243;-79
2023/08/26 07:12:39;;;;;;;106.38;81.25;;;;;;;;;;4991563;28;20283;-79
2023/08/26 07:15:06;;;;;;;218.68;205.50;;;;;;;;;;5001663;28;20231;-78
2023/08/26 07:17:33;;;;;;;166.40;153.35;;;;;;;;;;4996362;28;20227;-80
2023/08/26 07:20:01;;;;;;;174.02;163.05;;;;;;;;;;4978992;28;20251;-78
2023/08/26 07:22:27;;;;;;;118.05;106.90;;;;;;;;;;4994859;28;20246;-78
2023/08/26 07:24:55;;;;;;;103.50;95.25;;;;;;;;;;4990535;28;20311;-79
2023/08/26 07:27:23;;;;;;;184.25;172.07;;;;;;;;;;4999728;28;20247;-79
2023/08/26 07:29:49;;;;;;;104.65;96.18;;;;;;;;;;4989807;28;20247;-79
2023/08/26 07:32:16;;;;;;;169.48;158.63;;;;;;;;;;4994191;28;20224;-78
2023/08/26 07:34:43;;;;;;;111.65;99.85;;;;;;;;;;4987183;28;20274;-79
2023/08/26 07:37:09;;;;;;;113.88;105.57;;;;;;;;;;4998656;28;20231;-80
2023/08/26 07:39:36;;;;;;;89.38;78.97;;;;;;;;;;4991451;28;20231;-80
2023/08/26 07:42:03;;;;;;;33.95;11.07;;;;;;;;;;4998190;28;20314;-80
2023/08/26 07:44:29;;;;;;;67.50;18.05;;;;;;;;;;4989312;28;20243;-80
2023/08/26 07:46:56;;;;;;;31.23;6.05;;;;;;;;;;4978626;28;20223;-80
2023/08/26 07:49:23;;;;;;;37.05;11.90;;;;;;;;;;4997619;28;20231;-81
2023/08/26 07:51:50;;;;;;;42.00;30.02;;;;;;;;;;4992069;28;20232;-79
2023/08/26 07:54:16;;;;;;;73.72;66.70;;;;;;;;;;4993705;28;20223;-80
2023/08/26 07:56:43;;;;;;;63.33;14.43;;;;;;;;;;4998022;28;20224;-81
2023/08/26 07:59:09;;;;;;;114.03;105.88;;;;;;;;;;4995747;28;20239;-80
2023/08/26 08:01:36;;;;;;;184.50;170.95;;;;;;;;;;4995333;28;20239;-81
2023/08/26 08:04:03;;;;;;;232.68;218.95;;;;;;;;;;4993179;28;20265;-80
2023/08/26 08:06:29;;;;;;;124.13;111.30;;;;;;;;;;4989547;28;20306;-80
2023/08/26 08:08:56;;;;;;;171.38;159.50;;;;;;;;;;5000208;28;20235;-81
2023/08/26 08:11:22;;;;;;;203.63;190.50;;;;;;;;;;4996483;28;20269;-81
2023/08/26 08:13:49;;;;;;;364.65;343.67;;;;;;;;;;4990436;28;20231;-80
2023/08/26 08:16:16;;;;;;;205.20;191.38;;;;;;;;;;4993689;28;20221;-80
2023/08/26 08:18:43;;;;;;;94.40;51.63;;;;;;;;;;4993852;28;20219;-82
2023/08/26 08:21:09;;;;;;;33.10;6.25;;;;;;;;;;4999351;28;20220;-80
2023/08/26 08:23:37;;;;;;;158.38;145.52;;;;;;;;;;4996205;28;20230;-82
2023/08/26 08:26:03;;;;;;;149.68;139.65;;;;;;;;;;5004148;28;20250;-80
2023/08/26 08:28:30;;;;;;;65.22;19.90;;;;;;;;;;4963420;28;20232;-81
2023/08/26 08:30:57;;;;;;;125.35;115.45;;;;;;;;;;4984208;28;20235;-80
2023/08/26 08:33:23;;;;;;;119.88;110.55;;;;;;;;;;5002074;28;20278;-80
2023/08/26 08:35:50;;;;;;;115.25;107.22;;;;;;;;;;4993693;28;20247;-79
2023/08/26 08:38:17;;;;;;;94.32;82.00;;;;;;;;;;4994945;28;20235;-80
2023/08/26 08:40:43;;;;;;;104.45;81.13;;;;;;;;;;4977235;28;20289;-80
2023/08/26 08:43:10;;;;;;;106.53;97.43;;;;;;;;;;4991674;28;20224;-85
2023/08/26 08:45:37;;;;;;;109.13;98.00;;;;;;;;;;4994794;28;20235;-81
2023/08/26 08:48:04;;;;;;;144.27;133.70;;;;;;;;;;4981114;28;20223;-81
2023/08/26 08:50:31;;;;;;;127.25;113.75;;;;;;;;;;4991273;28;20251;-80
2023/08/26 08:52:58;;;;;;;248.25;232.00;;;;;;;;;;4991778;28;20284;-80
2023/08/26 08:55:25;;;;;;;283.88;267.77;;;;;;;;;;4991326;28;20231;-82
2023/08/26 08:57:53;;;;;;;198.38;185.20;;;;;;;;;;4976387;28;20234;-81
2023/08/26 09:00:23;;;;;;;97.50;89.43;;;;;;;;;;4995842;28;20238;-78
2023/08/26 09:02:51;;;;;;;91.82;83.57;;;;;;;;;;4984768;28;20236;-80
2023/08/26 09:05:18;;;;;;;156.00;144.77;;;;;;;;;;4997995;28;20306;-80
2023/08/26 09:07:46;;;;;;;56.17;41.85;;;;;;;;;;4995027;28;20244;-80
2023/08/26 09:10:12;;;;;;;77.80;70.72;;;;;;;;;;4990203;28;20227;-80
2023/08/26 09:12:39;;;;;;;83.55;15.70;;;;;;;;;;4966867;28;20284;-81
2023/08/26 09:15:06;;;;;;;41.70;27.00;;;;;;;;;;4993741;28;20302;-80
2023/08/26 09:17:33;;;;;;;107.60;81.13;;;;;;;;;;4980665;28;20231;-81
2023/08/26 09:20:00;;;;;;;117.30;107.90;;;;;;;;;;4986443;28;20293;-81
2023/08/26 09:22:28;;;;;;;130.13;119.25;;;;;;;;;;4990016;28;20804;-80
2023/08/26 09:24:55;;;;;;;303.10;286.17;;;;;;;;;;5002822;28;20234;-82
2023/08/26 09:27:22;;;;;;;241.18;223.90;;;;;;;;;;5000502;28;20234;-82
2023/08/26 09:29:49;;;;;;;193.85;180.50;;;;;;;;;;4989736;28;20725;-80
2023/08/26 09:32:29;;;;;;;237.80;220.75;;;;;;;;;;4999728;28;20298;-80
2023/08/26 09:35:07;;;;;;;184.93;172.75;;;;;;;;;;4998496;28;20645;-78
2023/08/26 09:37:34;;;;;;;105.65;28.25;;;;;;;;;;5002468;28;20223;-80
2023/08/26 09:40:00;;;;;;;52.47;10.30;;;;;;;;;;5004728;28;20320;-78
2023/08/26 09:42:28;;;;;;;117.55;104.70;;;;;;;;;;4991753;28;20230;-81
2023/08/26 09:44:57;;;;;;;202.10;188.65;;;;;;;;;;4998523;28;20698;-77
2023/08/26 09:47:28;;;;;;;153.85;140.88;;;;;;;;;;4999618;28;20685;-82
2023/08/26 09:49:55;;;;;;;141.32;130.45;;;;;;;;;;4995460;28;20648;-81
2023/08/26 09:52:23;;;;;;;89.85;80.78;;;;;;;;;;5000355;28;20266;-82
2023/08/26 09:54:51;;;;;;;40.25;13.95;;;;;;;;;;4992724;28;20231;-83
2023/08/26 09:57:17;;;;;;;65.38;17.40;;;;;;;;;;4996829;28;20234;-83
2023/08/26 09:59:44;;;;;;;43.20;8.95;;;;;;;;;;4976092;28;20801;-83
2023/08/26 10:02:30;;;;;;;43.97;16.33;;;;;;;;;;4983320;28;20227;-83
2023/08/26 10:05:00;;;;;;;40.13;16.48;;;;;;;;;;4990195;28;20246;-82
2023/08/26 10:07:27;;;;;;;57.10;12.32;;;;;;;;;;4993024;28;20231;-82
2023/08/26 10:09:59;;;;;;;34.45;6.78;;;;;;;;;;4998227;28;20257;-83
2023/08/26 10:12:32;;;;;;;34.03;6.68;;;;;;;;;;4998831;28;20280;-82
2023/08/26 10:15:00;;;;;;;39.45;7.50;;;;;;;;;;4992570;28;20264;-83
2023/08/26 10:17:28;;;;;;;48.42;9.50;;;;;;;;;;4994816;28;20705;-82
2023/08/26 10:19:55;;;;;;;30.05;5.88;;;;;;;;;;4985086;28;20227;-83
2023/08/26 10:22:22;;;;;;;44.13;8.70;;;;;;;;;;4983131;28;20231;-82
2023/08/26 10:24:49;;;;;;;40.03;10.40;;;;;;;;;;4994643;28;20239;-83
2023/08/26 10:27:16;;;;;;;36.63;9.98;;;;;;;;;;4992465;28;20239;-83
2023/08/26 10:29:43;;;;;;;66.68;12.13;;;;;;;;;;4991795;28;20604;-83
2023/08/26 10:32:17;;;;;;;63.35;11.55;;;;;;;;;;4997379;28;20233;-83
2023/08/26 10:34:54;;;;;;;85.57;14.32;;;;;;;;;;4985023;28;20228;-84
2023/08/26 10:37:24;;;;;;;30.90;6.05;;;;;;;;;;4994721;28;20231;-83
2023/08/26 10:39:51;;;;;;;22.83;4.70;;;;;;;;;;4990697;28;20241;-84
2023/08/26 10:42:19;;;;;;;38.30;7.35;;;;;;;;;;4991643;28;20219;-83
2023/08/26 10:44:57;;;;;;;38.05;24.83;;;;;;;;;;4985882;28;20246;-82
2023/08/26 10:47:34;;;;;;;85.40;77.63;;;;;;;;;;4990540;28;20223;-82
2023/08/26 10:50:14;;;;;;;79.60;57.58;;;;;;;;;;4989687;28;20234;-83
2023/08/26 10:52:41;;;;;;;98.65;26.55;;;;;;;;;;4987579;28;20223;-81
2023/08/26 10:55:12;;;;;;;77.03;65.57;;;;;;;;;;4973088;28;20231;-83
2023/08/26 10:57:59;;;;;;;104.80;34.97;;;;;;;;;;4989281;28;20231;-84
2023/08/26 11:00:26;;;;;;;46.33;8.45;;;;;;;;;;4994279;28;20231;-83
2023/08/26 11:02:54;;;;;;;37.00;6.97;;;;;;;;;;4996347;28;20227;-82
2023/08/26 11:05:21;;;;;;;31.70;5.93;;;;;;;;;;5000718;28;20290;-81
2023/08/26 11:07:47;;;;;;;116.13;107.68;;;;;;;;;;4979665;28;20237;-82
2023/08/26 11:10:24;;;;;;;166.70;154.00;;;;;;;;;;5004119;28;20242;-81
2023/08/26 11:12:50;;;;;;;188.93;175.65;;;;;;;;;;4995436;28;20233;-81
2023/08/26 11:15:17;;;;;;;132.52;122.82;;;;;;;;;;4997510;28;20234;-81
2023/08/26 11:17:44;;;;;;;148.10;135.00;;;;;;;;;;4999545;28;20226;-81
2023/08/26 11:20:17;;;;;;;128.05;117.72;;;;;;;;;;4997819;28;20277;-81
2023/08/26 11:22:44;;;;;;;141.98;131.60;;;;;;;;;;4997196;28;20252;-80
2023/08/26 11:25:15;;;;;;;90.82;83.80;;;;;;;;;;5002955;28;20215;-82
2023/08/26 11:27:41;;;;;;;58.58;16.90;;;;;;;;;;4996642;28;20219;-82
2023/08/26 11:30:09;;;;;;;36.35;10.88;;;;;;;;;;5001453;28;20227;-83
2023/08/26 11:32:36;;;;;;;68.88;14.73;;;;;;;;;;4994100;28;20248;-82
2023/08/26 11:35:07;;;;;;;38.33;7.70;;;;;;;;;;5000898;28;20731;-82
2023/08/26 11:37:41;;;;;;;83.60;21.73;;;;;;;;;;4996754;28;20223;-82
2023/08/26 11:40:09;;;;;;;56.78;51.72;;;;;;;;;;5003616;28;20246;-82
2023/08/26 11:42:36;;;;;;;81.93;32.88;;;;;;;;;;4997699;28;20223;-82
2023/08/26 11:45:07;;;;;;;39.72;28.58;;;;;;;;;;4996128;28;20228;-83
2023/08/26 11:47:34;;;;;;;64.35;20.63;;;;;;;;;;4995798;28;20235;-82
2023/08/26 11:50:01;;;;;;;34.70;14.63;;;;;;;;;;5002953;28;20277;-81
2023/08/26 11:52:32;;;;;;;50.03;26.60;;;;;;;;;;4994367;28;20236;-82
2023/08/26 11:54:58;;;;;;;50.95;32.85;;;;;;;;;;4982510;28;20237;-84
2023/08/26 11:57:25;;;;;;;41.08;19.23;;;;;;;;;;4992045;28;20231;-81
2023/08/26 11:59:51;;;;;;;26.38;5.13;;;;;;;;;;5001816;28;20233;-84
2023/08/26 12:02:22;;;;;;;40.90;27.80;;;;;;;;;;5003364;28;20235;-83
2023/08/26 12:04:55;;;;;;;51.15;27.70;;;;;;;;;;4995923;28;20411;-82
2023/08/26 12:07:21;;;;;;;43.13;25.65;;;;;;;;;;5000841;28;20241;-82
2023/08/26 12:09:48;;;;;;;33.55;16.30;;;;;;;;;;4973342;28;20242;-83
2023/08/26 12:12:17;;;;;;;35.38;11.15;;;;;;;;;;4983336;28;20319;-83
2023/08/26 12:14:44;;;;;;;74.43;12.25;;;;;;;;;;4973549;28;20235;-82
2023/08/26 12:17:10;;;;;;;30.10;5.68;;;;;;;;;;5002659;28;20226;-82
2023/08/26 12:19:37;;;;;;;90.90;15.52;;;;;;;;;;4976264;28;20265;-82
2023/08/26 12:22:05;;;;;;;30.95;5.82;;;;;;;;;;4991692;28;20236;-83
2023/08/26 12:24:31;;;;;;;95.22;15.82;;;;;;;;;;4991914;28;20235;-81
2023/08/26 12:27:06;;;;;;;43.95;8.30;;;;;;;;;;4999689;28;20230;-80
2023/08/26 12:29:33;;;;;;;71.85;14.15;;;;;;;;;;4990709;28;20249;-82
2023/08/26 12:31:59;;;;;;;30.27;6.15;;;;;;;;;;4987098;28;20239;-82
2023/08/26 12:34:26;;;;;;;38.90;7.18;;;;;;;;;;4996938;28;20226;-83
2023/08/26 12:36:52;;;;;;;48.80;8.95;;;;;;;;;;4995776;28;20625;-81
2023/08/26 12:39:20;;;;;;;31.80;5.93;;;;;;;;;;4979423;28;20230;-84
2023/08/26 12:41:46;;;;;;;27.38;5.13;;;;;;;;;;5002024;28;20230;-83
2023/08/26 12:44:16;;;;;;;36.63;6.78;;;;;;;;;;4986501;28;20258;-82
2023/08/26 12:46:42;;;;;;;60.63;11.40;;;;;;;;;;4992095;28;20238;-83
2023/08/26 12:49:09;;;;;;;180.32;165.93;;;;;;;;;;4995939;28;20261;-83
2023/08/26 12:51:51;;;;;;;241.20;224.70;;;;;;;;;;4961489;28;20266;-83
2023/08/26 12:54:18;;;;;;;185.02;169.77;;;;;;;;;;4995721;28;20239;-82
2023/08/26 12:56:44;;;;;;;204.82;191.07;;;;;;;;;;5001288;28;20423;-84
2023/08/26 12:59:12;;;;;;;140.15;128.02;;;;;;;;;;4999621;28;20763;-82
2023/08/26 13:01:39;;;;;;;146.90;133.65;;;;;;;;;;4992838;28;20219;-83
2023/08/26 13:04:05;;;;;;;195.82;182.18;;;;;;;;;;5004561;28;20230;-83
2023/08/26 13:06:32;;;;;;;192.50;174.77;;;;;;;;;;4995910;28;20682;-82
2023/08/26 13:08:58;;;;;;;307.42;286.27;;;;;;;;;;5002228;28;20238;-84
2023/08/26 13:11:25;;;;;;;203.25;187.93;;;;;;;;;;4996772;28;20226;-77
2023/08/26 13:13:52;;;;;;;148.77;136.95;;;;;;;;;;5005467;28;20231;-83
2023/08/26 13:16:18;;;;;;;180.95;167.13;;;;;;;;;;4979643;28;20344;-80
2023/08/26 13:18:45;;;;;;;129.23;119.65;;;;;;;;;;5008499;28;20265;-82
2023/08/26 13:21:12;;;;;;;185.77;172.23;;;;;;;;;;4987550;28;20222;-81
2023/08/26 13:23:38;;;;;;;329.48;306.35;;;;;;;;;;4999963;28;20223;-82
2023/08/26 13:26:05;;;;;;;332.45;312.58;;;;;;;;;;5005391;28;20227;-83
2023/08/26 13:28:31;;;;;;;288.10;266.98;;;;;;;;;;4999041;28;20242;-85
2023/08/26 13:31:01;;;;;;;124.15;114.45;;;;;;;;;;5011599;28;20222;-82
2023/08/26 13:33:28;;;;;;;310.92;290.05;;;;;;;;;;5000141;28;20253;-83
2023/08/26 13:35:54;;;;;;;153.05;141.68;;;;;;;;;;5002941;28;20227;-80
2023/08/26 13:38:21;;;;;;;270.55;250.35;;;;;;;;;;4997160;28;20237;-81
2023/08/26 13:40:48;;;;;;;187.05;174.25;;;;;;;;;;4990262;28;20702;-80
2023/08/26 13:43:14;;;;;;;282.33;263.48;;;;;;;;;;4999412;28;20280;-79
2023/08/26 13:45:41;;;;;;;216.10;199.55;;;;;;;;;;5002561;28;20219;-84
2023/08/26 13:48:07;;;;;;;244.38;228.60;;;;;;;;;;4998007;28;20219;-83
2023/08/26 13:50:34;;;;;;;185.35;167.25;;;;;;;;;;4982908;28;20238;-84
2023/08/26 13:53:01;;;;;;;28.88;6.57;;;;;;;;;;5004609;28;20235;-83
2023/08/26 13:55:27;;;;;;;105.95;89.07;;;;;;;;;;4996989;28;20569;-83
2023/08/26 13:57:54;;;;;;;57.00;14.48;;;;;;;;;;4997273;28;20224;-83
2023/08/26 14:00:21;;;;;;;65.82;58.55;;;;;;;;;;4991323;28;20312;-83
2023/08/26 14:02:48;;;;;;;300.13;281.42;;;;;;;;;;4989795;28;20235;-82